sensor_id;sensor_type;location;lat;lon;timestamp;P1;durP1;ratioP1;P2;durP2;ratioP2
54557;SDS011;40452;50.080;20.040;2024-02-28T04:33:08;26.40;;;17.33;;
54557;SDS011;40452;50.080;20.040;2024-02-28T04:35:34;27.58;;;16.27;;
54557;SDS011;40452;50.080;20.040;2024-02-28T04:38:00;28.73;;;17.10;;
54557;SDS011;40452;50.080;20.040;2024-02-28T04:40:26;28.98;;;16.92;;
54557;SDS011;40452;50.080;20.040;2024-02-28T04:42:52;26.25;;;16.33;;
54557;SDS011;40452;50.080;20.040;2024-02-28T04:45:18;25.77;;;16.30;;
54557;SDS011;40452;50.080;20.040;2024-02-28T04:47:44;26.05;;;15.77;;
54557;SDS011;40452;50.080;20.040;2024-02-28T04:50:10;24.27;;;15.50;;
54557;SDS011;40452;50.080;20.040;2024-02-28T04:52:37;25.80;;;15.15;;
54557;SDS011;40452;50.080;20.040;2024-02-28T04:55:03;22.85;;;14.85;;
54557;SDS011;40452;50.080;20.040;2024-02-28T04:57:29;25.73;;;15.85;;
54557;SDS011;40452;50.080;20.040;2024-02-28T04:59:55;26.67;;;15.68;;
54557;SDS011;40452;50.080;20.040;2024-02-28T05:02:21;26.52;;;16.27;;
54557;SDS011;40452;50.080;20.040;2024-02-28T05:04:47;23.98;;;15.85;;
54557;SDS011;40452;50.080;20.040;2024-02-28T05:07:14;24.75;;;14.30;;
54557;SDS011;40452;50.080;20.040;2024-02-28T05:09:40;26.05;;;14.63;;
54557;SDS011;40452;50.080;20.040;2024-02-28T05:12:06;39.92;;;14.38;;
54557;SDS011;40452;50.080;20.040;2024-02-28T05:14:32;21.95;;;13.35;;
54557;SDS011;40452;50.080;20.040;2024-02-28T05:16:58;22.75;;;14.48;;
54557;SDS011;40452;50.080;20.040;2024-02-28T05:19:24;23.88;;;14.25;;
54557;SDS011;40452;50.080;20.040;2024-02-28T05:21:50;26.48;;;13.95;;
54557;SDS011;40452;50.080;20.040;2024-02-28T05:24:16;27.83;;;13.93;;
54557;SDS011;40452;50.080;20.040;2024-02-28T05:26:42;22.27;;;14.68;;
54557;SDS011;40452;50.080;20.040;2024-02-28T05:29:08;24.67;;;14.13;;
54557;SDS011;40452;50.080;20.040;2024-02-28T05:31:34;20.83;;;13.60;;
54557;SDS011;40452;50.080;20.040;2024-02-28T05:34:03;23.80;;;13.70;;
54557;SDS011;40452;50.080;20.040;2024-02-28T05:36:29;22.70;;;14.00;;
54557;SDS011;40452;50.080;20.040;2024-02-28T05:38:56;19.05;;;12.63;;
54557;SDS011;40452;50.080;20.040;2024-02-28T05:41:22;22.15;;;13.73;;
54557;SDS011;40452;50.080;20.040;2024-02-28T05:43:48;21.60;;;14.18;;
54557;SDS011;40452;50.080;20.040;2024-02-28T05:46:15;21.33;;;13.23;;
54557;SDS011;40452;50.080;20.040;2024-02-28T05:48:41;23.08;;;13.00;;
54557;SDS011;40452;50.080;20.040;2024-02-28T05:51:07;21.33;;;13.52;;
54557;SDS011;40452;50.080;20.040;2024-02-28T05:53:34;22.40;;;13.77;;
54557;SDS011;40452;50.080;20.040;2024-02-28T05:56:07;21.80;;;13.30;;
54557;SDS011;40452;50.080;20.040;2024-02-28T05:58:40;20.67;;;12.60;;
54557;SDS011;40452;50.080;20.040;2024-02-28T06:01:06;22.90;;;13.13;;
54557;SDS011;40452;50.080;20.040;2024-02-28T06:03:32;20.45;;;12.55;;
54557;SDS011;40452;50.080;20.040;2024-02-28T06:05:59;20.77;;;13.63;;
54557;SDS011;40452;50.080;20.040;2024-02-28T06:08:25;22.48;;;14.32;;
54557;SDS011;40452;50.080;20.040;2024-02-28T06:10:51;20.05;;;13.30;;
54557;SDS011;40452;50.080;20.040;2024-02-28T06:13:17;22.63;;;13.27;;
54557;SDS011;40452;50.080;20.040;2024-02-28T06:15:43;22.20;;;13.25;;
54557;SDS011;40452;50.080;20.040;2024-02-28T06:18:09;23.65;;;14.13;;
54557;SDS011;40452;50.080;20.040;2024-02-28T06:20:36;23.27;;;14.88;;
54557;SDS011;40452;50.080;20.040;2024-02-28T06:23:02;23.83;;;14.32;;
54557;SDS011;40452;50.080;20.040;2024-02-28T06:25:28;24.20;;;14.38;;
54557;SDS011;40452;50.080;20.040;2024-02-28T06:27:54;26.52;;;14.90;;
54557;SDS011;40452;50.080;20.040;2024-02-28T06:30:20;22.40;;;13.63;;
54557;SDS011;40452;50.080;20.040;2024-02-28T06:32:46;27.40;;;15.25;;
54557;SDS011;40452;50.080;20.040;2024-02-28T06:35:12;27.02;;;14.63;;
54557;SDS011;40452;50.080;20.040;2024-02-28T06:37:38;23.05;;;13.85;;
54557;SDS011;40452;50.080;20.040;2024-02-28T06:40:04;25.45;;;14.65;;
54557;SDS011;40452;50.080;20.040;2024-02-28T06:42:33;24.13;;;14.55;;
54557;SDS011;40452;50.080;20.040;2024-02-28T06:45:01;23.90;;;14.57;;
54557;SDS011;40452;50.080;20.040;2024-02-28T06:47:27;26.58;;;15.75;;
54557;SDS011;40452;50.080;20.040;2024-02-28T06:49:53;26.33;;;15.63;;
54557;SDS011;40452;50.080;20.040;2024-02-28T06:52:19;28.55;;;16.02;;
54557;SDS011;40452;50.080;20.040;2024-02-28T06:54:45;28.83;;;15.63;;
54557;SDS011;40452;50.080;20.040;2024-02-28T06:57:11;37.95;;;18.35;;
54557;SDS011;40452;50.080;20.040;2024-02-28T06:59:37;39.95;;;18.35;;
54557;SDS011;40452;50.080;20.040;2024-02-28T07:02:03;32.28;;;17.73;;
54557;SDS011;40452;50.080;20.040;2024-02-28T07:04:29;27.88;;;17.85;;
54557;SDS011;40452;50.080;20.040;2024-02-28T07:06:56;32.95;;;17.45;;
54557;SDS011;40452;50.080;20.040;2024-02-28T07:09:22;33.10;;;18.45;;
54557;SDS011;40452;50.080;20.040;2024-02-28T07:11:50;29.15;;;16.88;;
54557;SDS011;40452;50.080;20.040;2024-02-28T07:14:16;30.38;;;17.45;;
54557;SDS011;40452;50.080;20.040;2024-02-28T07:16:42;28.15;;;15.73;;
54557;SDS011;40452;50.080;20.040;2024-02-28T07:19:08;31.63;;;16.42;;
54557;SDS011;40452;50.080;20.040;2024-02-28T07:21:35;36.90;;;17.20;;
54557;SDS011;40452;50.080;20.040;2024-02-28T07:24:02;34.83;;;16.10;;
54557;SDS011;40452;50.080;20.040;2024-02-28T07:26:30;29.42;;;15.57;;
54557;SDS011;40452;50.080;20.040;2024-02-28T07:28:56;35.83;;;16.10;;
54557;SDS011;40452;50.080;20.040;2024-02-28T07:31:22;28.42;;;15.80;;
54557;SDS011;40452;50.080;20.040;2024-02-28T07:33:48;32.80;;;15.75;;
54557;SDS011;40452;50.080;20.040;2024-02-28T07:36:14;26.05;;;15.45;;
54557;SDS011;40452;50.080;20.040;2024-02-28T07:38:43;32.72;;;15.43;;
54557;SDS011;40452;50.080;20.040;2024-02-28T07:41:09;31.52;;;15.48;;
54557;SDS011;40452;50.080;20.040;2024-02-28T07:43:35;30.88;;;16.13;;
54557;SDS011;40452;50.080;20.040;2024-02-28T07:46:07;30.70;;;15.52;;
54557;SDS011;40452;50.080;20.040;2024-02-28T07:48:34;29.08;;;15.70;;
54557;SDS011;40452;50.080;20.040;2024-02-28T07:51:00;26.00;;;15.30;;
54557;SDS011;40452;50.080;20.040;2024-02-28T07:53:26;36.28;;;15.65;;
54557;SDS011;40452;50.080;20.040;2024-02-28T07:55:52;25.20;;;14.30;;
54557;SDS011;40452;50.080;20.040;2024-02-28T07:58:18;24.15;;;14.93;;
54557;SDS011;40452;50.080;20.040;2024-02-28T08:00:44;28.25;;;14.55;;
54557;SDS011;40452;50.080;20.040;2024-02-28T08:03:10;43.88;;;24.75;;
54557;SDS011;40452;50.080;20.040;2024-02-28T08:05:36;31.40;;;17.48;;
54557;SDS011;40452;50.080;20.040;2024-02-28T08:08:05;26.38;;;15.63;;
54557;SDS011;40452;50.080;20.040;2024-02-28T08:10:31;26.65;;;15.35;;
54557;SDS011;40452;50.080;20.040;2024-02-28T08:12:57;27.73;;;15.32;;
54557;SDS011;40452;50.080;20.040;2024-02-28T08:15:23;24.95;;;15.02;;
54557;SDS011;40452;50.080;20.040;2024-02-28T08:17:49;27.83;;;15.43;;
54557;SDS011;40452;50.080;20.040;2024-02-28T08:20:15;26.80;;;15.35;;
54557;SDS011;40452;50.080;20.040;2024-02-28T08:22:41;27.13;;;15.07;;
54557;SDS011;40452;50.080;20.040;2024-02-28T08:25:07;24.52;;;14.93;;
54557;SDS011;40452;50.080;20.040;2024-02-28T08:27:36;23.02;;;14.32;;
54557;SDS011;40452;50.080;20.040;2024-02-28T08:30:03;26.77;;;15.45;;
54557;SDS011;40452;50.080;20.040;2024-02-28T08:32:31;26.70;;;15.02;;
54557;SDS011;40452;50.080;20.040;2024-02-28T08:34:57;26.45;;;15.13;;
54557;SDS011;40452;50.080;20.040;2024-02-28T08:37:23;27.30;;;15.43;;
54557;SDS011;40452;50.080;20.040;2024-02-28T08:39:49;22.10;;;14.60;;
54557;SDS011;40452;50.080;20.040;2024-02-28T08:42:15;25.70;;;14.57;;
54557;SDS011;40452;50.080;20.040;2024-02-28T08:44:41;24.50;;;14.38;;
54557;SDS011;40452;50.080;20.040;2024-02-28T08:47:13;24.95;;;14.30;;
54557;SDS011;40452;50.080;20.040;2024-02-28T08:49:39;25.40;;;14.88;;
54557;SDS011;40452;50.080;20.040;2024-02-28T08:52:05;23.45;;;14.57;;
54557;SDS011;40452;50.080;20.040;2024-02-28T08:54:31;27.23;;;14.93;;
54557;SDS011;40452;50.080;20.040;2024-02-28T08:56:57;26.23;;;14.90;;
54557;SDS011;40452;50.080;20.040;2024-02-28T08:59:23;28.05;;;15.35;;
54557;SDS011;40452;50.080;20.040;2024-02-28T09:01:51;23.23;;;14.20;;
54557;SDS011;40452;50.080;20.040;2024-02-28T09:04:17;27.23;;;14.95;;
54557;SDS011;40452;50.080;20.040;2024-02-28T09:06:43;27.20;;;14.73;;
54557;SDS011;40452;50.080;20.040;2024-02-28T09:09:09;25.13;;;14.50;;
54557;SDS011;40452;50.080;20.040;2024-02-28T09:11:35;27.42;;;14.43;;
54557;SDS011;40452;50.080;20.040;2024-02-28T09:14:01;27.13;;;14.50;;
54557;SDS011;40452;50.080;20.040;2024-02-28T09:16:27;25.30;;;14.55;;
54557;SDS011;40452;50.080;20.040;2024-02-28T09:18:53;23.35;;;14.40;;
54557;SDS011;40452;50.080;20.040;2024-02-28T09:21:19;24.30;;;14.63;;
54557;SDS011;40452;50.080;20.040;2024-02-28T09:23:45;26.67;;;15.05;;
54557;SDS011;40452;50.080;20.040;2024-02-28T09:26:11;22.90;;;14.07;;
54557;SDS011;40452;50.080;20.040;2024-02-28T09:28:38;25.35;;;14.77;;
54557;SDS011;40452;50.080;20.040;2024-02-28T09:31:04;20.65;;;13.68;;
54557;SDS011;40452;50.080;20.040;2024-02-28T09:33:30;25.35;;;14.35;;
54557;SDS011;40452;50.080;20.040;2024-02-28T09:35:56;25.10;;;14.15;;
54557;SDS011;40452;50.080;20.040;2024-02-28T09:38:22;24.70;;;13.88;;
54557;SDS011;40452;50.080;20.040;2024-02-28T09:40:48;23.10;;;14.32;;
54557;SDS011;40452;50.080;20.040;2024-02-28T09:43:47;24.02;;;13.88;;
54557;SDS011;40452;50.080;20.040;2024-02-28T09:46:07;23.83;;;13.88;;
54557;SDS011;40452;50.080;20.040;2024-02-28T09:48:38;26.08;;;14.27;;
54557;SDS011;40452;50.080;20.040;2024-02-28T09:51:04;23.08;;;14.00;;
54557;SDS011;40452;50.080;20.040;2024-02-28T09:53:30;20.65;;;13.25;;
54557;SDS011;40452;50.080;20.040;2024-02-28T09:55:56;23.73;;;13.18;;
54557;SDS011;40452;50.080;20.040;2024-02-28T09:58:22;24.85;;;13.80;;
54557;SDS011;40452;50.080;20.040;2024-02-28T10:00:49;23.48;;;13.77;;
54557;SDS011;40452;50.080;20.040;2024-02-28T10:03:18;24.58;;;14.07;;
54557;SDS011;40452;50.080;20.040;2024-02-28T10:05:50;22.30;;;13.63;;
54557;SDS011;40452;50.080;20.040;2024-02-28T10:08:17;22.13;;;13.50;;
54557;SDS011;40452;50.080;20.040;2024-02-28T10:10:46;23.08;;;13.80;;
54557;SDS011;40452;50.080;20.040;2024-02-28T10:13:12;23.75;;;13.75;;
54557;SDS011;40452;50.080;20.040;2024-02-28T10:15:38;22.05;;;13.52;;
54557;SDS011;40452;50.080;20.040;2024-02-28T10:18:04;23.52;;;12.75;;
54557;SDS011;40452;50.080;20.040;2024-02-28T10:20:31;23.15;;;13.57;;
54557;SDS011;40452;50.080;20.040;2024-02-28T10:22:57;19.45;;;12.75;;
54557;SDS011;40452;50.080;20.040;2024-02-28T10:25:23;20.38;;;12.77;;
54557;SDS011;40452;50.080;20.040;2024-02-28T10:27:51;23.35;;;13.18;;
54557;SDS011;40452;50.080;20.040;2024-02-28T10:30:18;27.58;;;13.40;;
54557;SDS011;40452;50.080;20.040;2024-02-28T10:32:48;23.70;;;13.48;;
54557;SDS011;40452;50.080;20.040;2024-02-28T10:35:15;25.90;;;14.30;;
54557;SDS011;40452;50.080;20.040;2024-02-28T10:37:45;22.88;;;13.45;;
54557;SDS011;40452;50.080;20.040;2024-02-28T15:42:49;19.92;;;12.32;;
54557;SDS011;40452;50.080;20.040;2024-02-28T15:45:15;19.90;;;11.60;;
54557;SDS011;40452;50.080;20.040;2024-02-28T15:47:43;22.85;;;12.60;;
54557;SDS011;40452;50.080;20.040;2024-02-28T15:50:09;19.67;;;12.27;;
54557;SDS011;40452;50.080;20.040;2024-02-28T15:52:36;20.45;;;12.32;;
54557;SDS011;40452;50.080;20.040;2024-02-28T15:55:02;22.67;;;11.57;;
54557;SDS011;40452;50.080;20.040;2024-02-28T15:57:29;21.50;;;12.65;;
54557;SDS011;40452;50.080;20.040;2024-02-28T15:59:55;21.83;;;12.23;;
54557;SDS011;40452;50.080;20.040;2024-02-28T16:02:21;23.00;;;12.52;;
54557;SDS011;40452;50.080;20.040;2024-02-28T16:04:47;24.80;;;12.85;;
54557;SDS011;40452;50.080;20.040;2024-02-28T16:07:12;22.73;;;12.85;;
54557;SDS011;40452;50.080;20.040;2024-02-28T16:09:40;19.90;;;12.40;;
54557;SDS011;40452;50.080;20.040;2024-02-28T16:12:08;19.63;;;12.18;;
54557;SDS011;40452;50.080;20.040;2024-02-28T16:14:34;20.77;;;12.02;;
54557;SDS011;40452;50.080;20.040;2024-02-28T16:17:00;23.08;;;12.20;;
54557;SDS011;40452;50.080;20.040;2024-02-28T16:19:26;21.13;;;11.85;;
54557;SDS011;40452;50.080;20.040;2024-02-28T16:21:52;20.48;;;11.70;;
54557;SDS011;40452;50.080;20.040;2024-02-28T16:24:19;19.33;;;12.02;;
54557;SDS011;40452;50.080;20.040;2024-02-28T16:26:45;19.08;;;11.80;;
54557;SDS011;40452;50.080;20.040;2024-02-28T16:29:11;22.27;;;11.98;;
54557;SDS011;40452;50.080;20.040;2024-02-28T16:31:37;20.00;;;11.68;;
54557;SDS011;40452;50.080;20.040;2024-02-28T16:34:03;18.33;;;11.85;;
54557;SDS011;40452;50.080;20.040;2024-02-28T16:36:29;19.08;;;11.95;;
54557;SDS011;40452;50.080;20.040;2024-02-28T16:38:55;21.85;;;12.10;;
54557;SDS011;40452;50.080;20.040;2024-02-28T16:41:24;18.98;;;11.65;;
54557;SDS011;40452;50.080;20.040;2024-02-28T16:43:50;18.65;;;11.43;;
54557;SDS011;40452;50.080;20.040;2024-02-28T16:46:19;17.33;;;11.75;;
54557;SDS011;40452;50.080;20.040;2024-02-28T16:48:46;20.35;;;12.13;;
54557;SDS011;40452;50.080;20.040;2024-02-28T16:51:12;20.05;;;11.85;;
54557;SDS011;40452;50.080;20.040;2024-02-28T16:53:38;17.95;;;11.43;;
54557;SDS011;40452;50.080;20.040;2024-02-28T16:56:04;21.55;;;12.38;;
54557;SDS011;40452;50.080;20.040;2024-02-28T16:58:30;20.13;;;12.02;;
54557;SDS011;40452;50.080;20.040;2024-02-28T17:00:56;18.92;;;12.45;;
54557;SDS011;40452;50.080;20.040;2024-02-28T17:03:22;20.60;;;12.18;;
54557;SDS011;40452;50.080;20.040;2024-02-28T17:05:49;24.73;;;13.30;;
54557;SDS011;40452;50.080;20.040;2024-02-28T17:08:14;21.30;;;12.55;;
54557;SDS011;40452;50.080;20.040;2024-02-28T17:10:41;22.27;;;12.82;;
54557;SDS011;40452;50.080;20.040;2024-02-28T17:13:07;20.40;;;12.10;;
54557;SDS011;40452;50.080;20.040;2024-02-28T17:15:33;19.05;;;12.05;;
54557;SDS011;40452;50.080;20.040;2024-02-28T17:17:59;22.08;;;12.60;;
54557;SDS011;40452;50.080;20.040;2024-02-28T17:20:25;18.75;;;12.15;;
54557;SDS011;40452;50.080;20.040;2024-02-28T17:22:51;21.08;;;12.20;;
54557;SDS011;40452;50.080;20.040;2024-02-28T17:25:17;20.48;;;11.90;;
54557;SDS011;40452;50.080;20.040;2024-02-28T17:27:43;20.23;;;12.57;;
54557;SDS011;40452;50.080;20.040;2024-02-28T17:30:10;21.67;;;12.85;;
54557;SDS011;40452;50.080;20.040;2024-02-28T17:32:36;22.10;;;13.10;;
54557;SDS011;40452;50.080;20.040;2024-02-28T17:35:02;22.63;;;13.65;;
54557;SDS011;40452;50.080;20.040;2024-02-28T17:37:32;23.00;;;13.70;;
54557;SDS011;40452;50.080;20.040;2024-02-28T17:39:59;19.77;;;13.05;;
54557;SDS011;40452;50.080;20.040;2024-02-28T17:42:26;22.92;;;14.13;;
54557;SDS011;40452;50.080;20.040;2024-02-28T17:44:53;19.75;;;13.13;;
54557;SDS011;40452;50.080;20.040;2024-02-28T17:47:19;21.45;;;13.40;;
54557;SDS011;40452;50.080;20.040;2024-02-28T17:49:45;23.73;;;13.32;;
54557;SDS011;40452;50.080;20.040;2024-02-28T17:52:11;24.05;;;13.82;;
54557;SDS011;40452;50.080;20.040;2024-02-28T17:54:37;21.10;;;13.32;;
54557;SDS011;40452;50.080;20.040;2024-02-28T17:57:04;24.33;;;14.38;;
54557;SDS011;40452;50.080;20.040;2024-02-28T17:59:30;26.75;;;15.38;;
54557;SDS011;40452;50.080;20.040;2024-02-28T18:01:57;30.08;;;16.65;;
54557;SDS011;40452;50.080;20.040;2024-02-28T18:04:23;30.30;;;17.20;;
54557;SDS011;40452;50.080;20.040;2024-02-28T18:06:49;32.70;;;17.48;;
54557;SDS011;40452;50.080;20.040;2024-02-28T18:09:15;25.33;;;15.45;;
54557;SDS011;40452;50.080;20.040;2024-02-28T18:11:43;26.98;;;16.33;;
54557;SDS011;40452;50.080;20.040;2024-02-28T18:14:09;28.33;;;16.85;;
54557;SDS011;40452;50.080;20.040;2024-02-28T18:16:38;31.98;;;17.60;;
54557;SDS011;40452;50.080;20.040;2024-02-28T18:19:04;29.42;;;18.05;;
54557;SDS011;40452;50.080;20.040;2024-02-28T18:21:30;29.20;;;17.10;;
54557;SDS011;40452;50.080;20.040;2024-02-28T18:23:59;30.70;;;17.48;;
54557;SDS011;40452;50.080;20.040;2024-02-28T18:26:25;29.60;;;17.48;;
54557;SDS011;40452;50.080;20.040;2024-02-28T18:28:52;28.75;;;16.55;;
54557;SDS011;40452;50.080;20.040;2024-02-28T18:31:18;30.65;;;17.50;;
54557;SDS011;40452;50.080;20.040;2024-02-28T18:33:43;31.58;;;17.52;;
54557;SDS011;40452;50.080;20.040;2024-02-28T18:36:09;28.63;;;17.95;;
54557;SDS011;40452;50.080;20.040;2024-02-28T18:38:36;31.95;;;17.73;;
54557;SDS011;40452;50.080;20.040;2024-02-28T18:41:02;29.13;;;17.52;;
54557;SDS011;40452;50.080;20.040;2024-02-28T18:43:29;27.73;;;16.77;;
54557;SDS011;40452;50.080;20.040;2024-02-28T18:45:56;28.23;;;18.02;;
54557;SDS011;40452;50.080;20.040;2024-02-28T18:48:22;29.83;;;17.52;;
54557;SDS011;40452;50.080;20.040;2024-02-28T18:50:48;30.27;;;18.17;;
54557;SDS011;40452;50.080;20.040;2024-02-28T18:53:14;30.90;;;19.60;;
54557;SDS011;40452;50.080;20.040;2024-02-28T18:55:40;36.47;;;20.90;;
54557;SDS011;40452;50.080;20.040;2024-02-28T18:58:06;35.65;;;20.33;;
54557;SDS011;40452;50.080;20.040;2024-02-28T19:00:34;36.38;;;20.38;;
54557;SDS011;40452;50.080;20.040;2024-02-28T19:03:03;40.70;;;22.52;;
54557;SDS011;40452;50.080;20.040;2024-02-28T19:05:29;38.47;;;21.42;;
54557;SDS011;40452;50.080;20.040;2024-02-28T19:07:58;33.42;;;20.88;;
54557;SDS011;40452;50.080;20.040;2024-02-28T19:10:24;34.75;;;21.38;;
54557;SDS011;40452;50.080;20.040;2024-02-28T19:12:50;34.97;;;20.95;;
54557;SDS011;40452;50.080;20.040;2024-02-28T19:15:16;34.55;;;20.52;;
54557;SDS011;40452;50.080;20.040;2024-02-28T19:17:42;31.77;;;20.08;;
54557;SDS011;40452;50.080;20.040;2024-02-28T19:20:08;36.38;;;21.40;;
54557;SDS011;40452;50.080;20.040;2024-02-28T19:22:35;36.55;;;21.73;;
54557;SDS011;40452;50.080;20.040;2024-02-28T19:25:01;35.50;;;20.83;;
54557;SDS011;40452;50.080;20.040;2024-02-28T19:27:28;38.80;;;21.60;;
54557;SDS011;40452;50.080;20.040;2024-02-28T19:29:54;34.28;;;21.55;;
54557;SDS011;40452;50.080;20.040;2024-02-28T19:32:20;32.80;;;20.98;;
54557;SDS011;40452;50.080;20.040;2024-02-28T19:34:46;35.40;;;20.92;;
54557;SDS011;40452;50.080;20.040;2024-02-28T19:37:12;35.95;;;21.02;;
54557;SDS011;40452;50.080;20.040;2024-02-28T19:39:38;38.40;;;21.17;;
54557;SDS011;40452;50.080;20.040;2024-02-28T19:42:05;35.95;;;20.70;;
54557;SDS011;40452;50.080;20.040;2024-02-28T19:44:31;36.42;;;22.20;;
54557;SDS011;40452;50.080;20.040;2024-02-28T19:46:57;33.63;;;20.95;;
54557;SDS011;40452;50.080;20.040;2024-02-28T19:49:23;38.75;;;21.75;;
54557;SDS011;40452;50.080;20.040;2024-02-28T19:51:49;38.97;;;21.90;;
54557;SDS011;40452;50.080;20.040;2024-02-28T19:54:15;39.45;;;22.60;;
54557;SDS011;40452;50.080;20.040;2024-02-28T19:56:41;41.42;;;22.77;;
54557;SDS011;40452;50.080;20.040;2024-02-28T19:59:07;40.03;;;23.05;;
54557;SDS011;40452;50.080;20.040;2024-02-28T20:01:33;34.83;;;21.55;;
54557;SDS011;40452;50.080;20.040;2024-02-28T20:03:59;38.65;;;23.13;;
54557;SDS011;40452;50.080;20.040;2024-02-28T20:06:26;39.42;;;24.05;;
54557;SDS011;40452;50.080;20.040;2024-02-28T20:08:51;38.17;;;22.92;;
54557;SDS011;40452;50.080;20.040;2024-02-28T20:11:18;38.17;;;23.80;;
54557;SDS011;40452;50.080;20.040;2024-02-28T20:13:45;38.63;;;23.80;;
54557;SDS011;40452;50.080;20.040;2024-02-28T20:16:15;37.85;;;23.60;;
54557;SDS011;40452;50.080;20.040;2024-02-28T20:18:41;38.67;;;23.70;;
54557;SDS011;40452;50.080;20.040;2024-02-28T20:21:07;45.42;;;24.48;;
54557;SDS011;40452;50.080;20.040;2024-02-28T20:23:33;37.30;;;24.60;;
54557;SDS011;40452;50.080;20.040;2024-02-28T20:25:59;35.13;;;23.27;;
54557;SDS011;40452;50.080;20.040;2024-02-28T20:28:29;39.42;;;24.73;;
54557;SDS011;40452;50.080;20.040;2024-02-28T20:30:56;40.95;;;23.73;;
54557;SDS011;40452;50.080;20.040;2024-02-28T20:33:23;37.85;;;24.25;;
54557;SDS011;40452;50.080;20.040;2024-02-28T20:35:52;39.30;;;24.27;;
54557;SDS011;40452;50.080;20.040;2024-02-28T20:38:18;37.10;;;23.40;;
54557;SDS011;40452;50.080;20.040;2024-02-28T20:40:48;37.08;;;23.17;;
54557;SDS011;40452;50.080;20.040;2024-02-28T20:43:14;38.85;;;24.20;;
54557;SDS011;40452;50.080;20.040;2024-02-28T20:45:41;34.92;;;23.70;;
54557;SDS011;40452;50.080;20.040;2024-02-28T20:48:07;35.88;;;23.08;;
54557;SDS011;40452;50.080;20.040;2024-02-28T20:50:33;36.67;;;24.48;;
54557;SDS011;40452;50.080;20.040;2024-02-28T20:52:59;37.10;;;24.45;;
54557;SDS011;40452;50.080;20.040;2024-02-28T20:55:27;45.53;;;24.40;;
54557;SDS011;40452;50.080;20.040;2024-02-28T20:57:55;41.42;;;24.23;;
54557;SDS011;40452;50.080;20.040;2024-02-28T21:00:26;39.72;;;24.25;;
54557;SDS011;40452;50.080;20.040;2024-02-28T21:02:52;39.78;;;24.33;;
54557;SDS011;40452;50.080;20.040;2024-02-28T21:05:18;39.22;;;23.20;;
54557;SDS011;40452;50.080;20.040;2024-02-28T21:07:44;40.05;;;23.33;;
54557;SDS011;40452;50.080;20.040;2024-02-28T21:10:11;41.00;;;24.33;;
54557;SDS011;40452;50.080;20.040;2024-02-28T21:12:37;38.88;;;23.35;;
54557;SDS011;40452;50.080;20.040;2024-02-28T21:15:03;41.42;;;23.33;;
